Time;durP1;ratioP1;P1;durP2;ratioP2;P2;SDS_P1;SDS_P2;PMS_P1;PMS_P2;Temp;Humidity;BMP_temperature;BMP_pressure;BME280_temperature;BME280_humidity;BME280_pressure;Samples;Min_cycle;Max_cycle;Signal;HPM_P1;HPM_P2
2023/10/12 00:02:04;;;;;;;10.60;3.25;;;;;;;18.93;100.00;98136.88;6104887;19;20019;-74
2023/10/12 00:04:11;;;;;;;8.43;2.90;;;;;;;18.92;100.00;98131.72;6107851;19;20010;-74
2023/10/12 00:06:13;;;;;;;15.40;3.35;;;;;;;18.88;100.00;98129.03;6107086;19;20408;-73
2023/10/12 00:08:30;;;;;;;10.27;3.92;;;;;;;18.88;100.00;98115.03;6107595;19;20027;-74
2023/10/12 00:10:40;;;;;;;6.22;3.30;;;;;;;18.82;100.00;98119.59;6107479;19;20015;-74
2023/10/12 00:12:47;;;;;;;9.27;3.22;;;;;;;18.81;100.00;98112.41;6106769;19;20011;-74
2023/10/12 00:14:48;;;;;;;7.32;4.13;;;;;;;18.85;100.00;98112.31;6106005;19;20014;-74
2023/10/12 00:16:51;;;;;;;9.20;3.67;;;;;;;18.88;100.00;98106.63;6105819;19;20013;-74
2023/10/12 00:18:51;;;;;;;11.18;3.60;;;;;;;18.84;100.00;98111.50;6107325;19;20015;-74
2023/10/12 00:20:54;;;;;;;8.63;3.50;;;;;;;18.84;100.00;98110.72;6106520;19;20023;-74
2023/10/12 00:22:58;;;;;;;11.52;3.92;;;;;;;18.84;100.00;98114.31;6106491;19;20403;-74
2023/10/12 00:24:59;;;;;;;9.85;4.03;;;;;;;18.80;100.00;98103.22;6107747;19;20042;-74
2023/10/12 00:27:01;;;;;;;9.50;3.30;;;;;;;18.84;100.00;98108.72;6106121;19;20015;-74
2023/10/12 00:29:06;;;;;;;8.75;3.97;;;;;;;18.86;100.00;98114.66;6111068;19;20014;-74
2023/10/12 00:31:12;;;;;;;13.25;3.83;;;;;;;18.77;100.00;98115.28;6109936;19;20014;-74
2023/10/12 00:33:12;;;;;;;11.30;4.45;;;;;;;18.78;100.00;98113.28;6112404;19;20002;-74
2023/10/12 00:35:17;;;;;;;10.65;3.40;;;;;;;18.74;100.00;98113.38;6113249;19;20018;-74
2023/10/12 00:37:17;;;;;;;8.80;3.78;;;;;;;18.71;100.00;98097.47;6112979;19;20010;-74
2023/10/12 00:39:22;;;;;;;7.30;3.55;;;;;;;18.62;100.00;98088.88;6113010;19;20007;-74
2023/10/12 00:41:24;;;;;;;10.25;3.70;;;;;;;18.66;100.00;98103.59;6111541;19;20003;-74
2023/10/12 00:43:31;;;;;;;9.23;3.50;;;;;;;18.69;100.00;98091.50;6112564;19;20006;-74
2023/10/12 00:45:33;;;;;;;10.27;3.53;;;;;;;18.63;100.00;98098.84;6112101;19;20013;-74
2023/10/12 00:47:46;;;;;;;9.63;3.60;;;;;;;18.66;100.00;98100.00;6112532;19;20011;-74
2023/10/12 00:49:48;;;;;;;5.43;3.60;;;;;;;18.76;100.00;98099.72;6100719;19;20005;-74
2023/10/12 00:51:53;;;;;;;7.32;3.30;;;;;;;18.76;100.00;98107.34;6111223;19;20345;-74
2023/10/12 00:53:56;;;;;;;9.30;3.55;;;;;;;18.81;100.00;98098.41;6112949;19;20010;-74
2023/10/12 00:55:57;;;;;;;6.55;3.47;;;;;;;18.77;100.00;98092.09;6111578;19;20023;-74
2023/10/12 00:57:58;;;;;;;16.60;3.45;;;;;;;18.75;100.00;98098.13;6108699;19;20006;-74
2023/10/12 01:00:01;;;;;;;6.05;3.47;;;;;;;18.71;100.00;98099.47;6110738;19;20018;-74
2023/10/12 01:02:24;;;;;;;9.80;3.60;;;;;;;18.69;100.00;98090.72;6110891;19;20401;-74
2023/10/12 01:04:22;;;;;;;10.23;4.00;;;;;;;18.73;100.00;98085.81;6111939;19;20006;-74
2023/10/12 01:08:30;;;;;;;9.40;3.97;;;;;;;18.68;100.00;98075.13;6112018;19;23848;-74
2023/10/12 01:10:33;;;;;;;9.00;3.72;;;;;;;18.68;100.00;98080.72;6111197;19;20011;-74
2023/10/12 01:12:34;;;;;;;10.48;3.75;;;;;;;18.74;100.00;98074.16;6112003;19;20002;-74
2023/10/12 01:14:34;;;;;;;11.77;3.90;;;;;;;18.75;100.00;98083.34;6109005;19;20006;-74
2023/10/12 01:19:05;;;;;;;7.13;3.45;;;;;;;18.70;100.00;98081.06;6112181;19;19999;-74
2023/10/12 01:21:11;;;;;;;11.80;3.88;;;;;;;18.66;100.00;98083.97;6110493;19;20007;-74
2023/10/12 01:23:12;;;;;;;8.93;3.20;;;;;;;18.66;100.00;98080.41;6111033;19;20443;-74
2023/10/12 01:25:28;;;;;;;7.77;3.57;;;;;;;18.64;100.00;98080.03;6112291;19;20405;-74
2023/10/12 01:27:28;;;;;;;8.57;3.75;;;;;;;18.60;100.00;98082.13;6111099;19;20024;-74
2023/10/12 01:29:31;;;;;;;10.05;3.78;;;;;;;18.53;100.00;98083.91;6111769;19;19999;-74
2023/10/12 01:31:31;;;;;;;7.30;3.55;;;;;;;18.50;100.00;98084.00;6109649;19;19995;-74
2023/10/12 01:33:32;;;;;;;12.70;4.45;;;;;;;18.45;100.00;98082.53;6110131;19;20150;-74
2023/10/12 01:35:33;;;;;;;11.07;4.00;;;;;;;18.43;100.00;98095.38;6110812;19;19998;-74
2023/10/12 01:37:48;;;;;;;6.00;3.10;;;;;;;18.41;100.00;98081.81;6111023;19;20006;-74
2023/10/12 01:39:55;;;;;;;12.57;4.53;;;;;;;18.36;100.00;98085.13;6108024;19;20287;-74
2023/10/12 01:41:56;;;;;;;9.15;3.80;;;;;;;18.37;100.00;98091.53;6110258;19;20459;-74
2023/10/12 01:43:57;;;;;;;10.57;3.55;;;;;;;18.32;100.00;98097.69;6110748;19;20406;-74
2023/10/12 01:46:02;;;;;;;10.70;3.70;;;;;;;18.32;100.00;98092.88;6110500;19;20010;-74
2023/10/12 01:48:16;;;;;;;12.63;4.13;;;;;;;18.26;100.00;98091.81;6108969;19;20002;-74
2023/10/12 01:50:16;;;;;;;9.35;3.60;;;;;;;18.25;100.00;98090.25;6104267;19;20861;-73
2023/10/12 01:52:19;;;;;;;11.95;4.55;;;;;;;18.22;100.00;98094.72;6102805;19;20364;-74
2023/10/12 01:54:22;;;;;;;6.90;3.95;;;;;;;18.19;100.00;98095.56;6104031;19;20547;-74
2023/10/12 01:56:28;;;;;;;6.45;3.70;;;;;;;18.23;100.00;98104.69;6102765;19;20022;-74
2023/10/12 01:58:29;;;;;;;9.20;3.90;;;;;;;18.20;100.00;98096.34;6103738;19;20015;-74
2023/10/12 02:00:39;;;;;;;9.50;3.60;;;;;;;18.16;100.00;98098.47;6103565;19;20035;-74
2023/10/12 02:02:47;;;;;;;8.95;3.47;;;;;;;18.12;100.00;98094.97;6103226;19;20024;-74
2023/10/12 02:04:48;;;;;;;8.02;3.67;;;;;;;18.03;100.00;98084.38;6102697;19;20230;-74
2023/10/12 02:06:51;;;;;;;9.55;4.15;;;;;;;18.04;100.00;98085.97;6103416;19;20081;-73
2023/10/12 02:08:59;;;;;;;9.20;3.72;;;;;;;17.99;100.00;98092.09;6103140;19;20006;-74
2023/10/12 02:11:06;;;;;;;7.35;3.67;;;;;;;18.00;100.00;98096.47;6103312;19;20499;-74
2023/10/12 02:13:08;;;;;;;8.70;3.60;;;;;;;17.95;100.00;98088.56;6101725;19;20427;-74
2023/10/12 02:15:14;;;;;;;7.25;4.00;;;;;;;17.95;100.00;98096.97;6100622;19;20014;-74
2023/10/12 02:17:15;;;;;;;9.50;4.22;;;;;;;17.90;100.00;98097.50;6104193;19;21229;-73
2023/10/12 02:19:31;;;;;;;12.15;4.40;;;;;;;17.86;100.00;98114.38;6102966;19;20006;-74
2023/10/12 02:21:33;;;;;;;11.20;4.18;;;;;;;17.84;100.00;98111.22;6101949;19;20011;-73
2023/10/12 02:23:54;;;;;;;8.57;3.78;;;;;;;17.81;100.00;98102.94;6103792;19;20034;-74
2023/10/12 02:25:55;;;;;;;7.88;3.55;;;;;;;17.83;100.00;98114.47;6103202;19;20526;-74
2023/10/12 02:27:56;;;;;;;7.78;3.63;;;;;;;17.77;100.00;98100.19;6102110;19;20027;-74
2023/10/12 02:29:57;;;;;;;7.22;3.72;;;;;;;17.73;100.00;98099.50;6100952;19;20513;-74
2023/10/12 02:32:07;;;;;;;7.53;3.83;;;;;;;17.73;100.00;98099.50;6101122;19;20031;-74
2023/10/12 02:34:17;;;;;;;7.95;3.65;;;;;;;17.69;100.00;98099.53;6101381;19;20010;-74
2023/10/12 02:36:18;;;;;;;12.43;4.18;;;;;;;17.73;100.00;98105.09;6102181;19;20007;-73
2023/10/12 02:38:20;;;;;;;7.47;4.15;;;;;;;17.74;100.00;98108.69;6102590;19;20010;-74
2023/10/12 02:40:21;;;;;;;10.75;4.22;;;;;;;17.71;100.00;98106.72;6101751;19;20277;-74
2023/10/12 02:42:22;;;;;;;9.05;3.90;;;;;;;17.71;100.00;98104.75;6101739;19;20011;-73
2023/10/12 02:44:23;;;;;;;9.80;4.03;;;;;;;17.69;100.00;98099.53;6102691;19;20018;-73
2023/10/12 02:46:23;;;;;;;10.10;3.80;;;;;;;17.66;100.00;98099.63;6103224;19;20103;-73
2023/10/12 02:48:23;;;;;;;9.32;4.20;;;;;;;17.69;100.00;98091.16;6102042;19;20623;-74
2023/10/12 02:50:27;;;;;;;7.00;3.80;;;;;;;17.65;100.00;98093.25;6108025;19;20011;-74
2023/10/12 02:52:30;;;;;;;6.97;3.72;;;;;;;17.64;100.00;98099.28;6108160;19;20009;-74
2023/10/12 02:54:47;;;;;;;9.73;4.03;;;;;;;17.60;100.00;98093.75;6109735;19;20332;-74
2023/10/12 02:56:48;;;;;;;9.90;4.15;;;;;;;17.57;100.00;98091.06;6108892;19;20006;-74
2023/10/12 02:58:48;;;;;;;9.73;3.95;;;;;;;17.53;100.00;98099.50;6109250;19;20003;-73
2023/10/12 03:00:54;;;;;;;9.13;3.97;;;;;;;17.51;100.00;98103.97;6109813;19;20390;-74
2023/10/12 03:02:58;;;;;;;13.00;4.18;;;;;;;17.49;100.00;98098.03;6107977;19;20007;-74
2023/10/12 03:05:06;;;;;;;8.80;4.30;;;;;;;17.49;100.00;98090.44;6109503;19;20002;-73
2023/10/12 03:07:12;;;;;;;7.80;3.75;;;;;;;17.45;100.00;98100.09;6109872;19;20021;-74
2023/10/12 03:09:16;;;;;;;10.25;3.60;;;;;;;17.42;100.00;98094.16;6109473;19;20007;-74
2023/10/12 03:11:20;;;;;;;10.93;4.97;;;;;;;17.44;100.00;98104.91;6108621;19;20031;-73
2023/10/12 03:13:25;;;;;;;8.07;4.15;;;;;;;17.40;100.00;98107.78;6106516;19;20582;-74
2023/10/12 03:15:41;;;;;;;7.65;4.10;;;;;;;17.37;100.00;98100.25;6107511;19;20002;-73
2023/10/12 03:17:45;;;;;;;11.95;4.00;;;;;;;17.35;100.00;98124.28;6109295;19;20097;-73
2023/10/12 03:19:55;;;;;;;8.55;3.70;;;;;;;17.30;100.00;98108.03;6108646;19;20442;-74
2023/10/12 03:22:03;;;;;;;8.00;3.88;;;;;;;17.25;100.00;98106.53;6108175;19;20006;-74
2023/10/12 03:24:05;;;;;;;7.63;3.22;;;;;;;17.23;100.00;98095.00;6108706;19;20066;-73
2023/10/12 03:26:24;;;;;;;9.07;4.50;;;;;;;17.21;100.00;98094.63;6108036;19;20463;-73
2023/10/12 03:28:30;;;;;;;11.38;4.47;;;;;;;17.25;100.00;98102.94;6109866;19;20426;-73
2023/10/12 03:30:43;;;;;;;7.43;4.00;;;;;;;17.22;100.00;98101.81;6109285;19;20014;-73
2023/10/12 03:32:45;;;;;;;10.07;4.70;;;;;;;17.24;100.00;98110.53;6106739;19;20005;-73
2023/10/12 03:36:47;;;;;;;8.35;3.92;;;;;;;17.27;100.00;98104.06;6107983;19;20034;-74
2023/10/12 03:39:06;;;;;;;;;;;;;;;17.27;100.00;98109.66;6109615;19;20455;-73
2023/10/12 03:43:27;;;;;;;7.32;4.30;;;;;;;17.35;100.00;98118.69;6108667;19;20512;-74
2023/10/12 03:45:33;;;;;;;11.60;3.60;;;;;;;17.37;100.00;98122.63;6108785;19;20894;-73
2023/10/12 03:47:46;;;;;;;10.55;4.70;;;;;;;17.39;100.00;98116.63;6109099;19;20069;-74
2023/10/12 03:51:59;;;;;;;11.07;4.35;;;;;;;17.31;100.00;98109.59;6107213;19;19935;-73
2023/10/12 03:54:11;;;;;;;6.93;3.78;;;;;;;17.30;100.00;98099.66;6108108;19;20007;-73
2023/10/12 03:56:15;;;;;;;8.63;3.88;;;;;;;17.29;100.00;98124.00;6005081;19;2006648;-73
2023/10/12 03:58:23;;;;;;;7.88;3.90;;;;;;;17.26;100.00;98116.47;6107423;19;20063;-73
2023/10/12 04:00:25;;;;;;;9.43;4.07;;;;;;;17.31;100.00;98124.38;6106829;19;20027;-74
2023/10/12 04:02:26;;;;;;;11.05;4.50;;;;;;;17.34;100.00;98128.31;6105787;19;20010;-74
2023/10/12 04:04:35;;;;;;;8.75;3.90;;;;;;;17.28;100.00;98118.84;6108001;19;20010;-73
2023/10/12 04:08:55;;;;;;;8.77;3.85;;;;;;;17.26;100.00;98113.69;6108033;19;20029;-73
2023/10/12 04:13:08;;;;;;;7.70;3.70;;;;;;;17.21;100.00;98132.97;6106043;19;20096;-73
2023/10/12 04:15:26;;;;;;;7.75;3.55;;;;;;;17.21;100.00;98133.78;6105712;19;20010;-74
2023/10/12 04:19:31;;;;;;;7.95;3.70;;;;;;;17.19;100.00;98143.78;6107909;19;20007;-73
2023/10/12 04:21:36;;;;;;;7.75;3.65;;;;;;;17.19;100.00;98158.56;6104679;19;20006;-73
2023/10/12 04:24:24;;;;;;;10.77;4.03;;;;;;;17.13;100.00;98147.09;6105481;19;20006;-74
2023/10/12 04:28:22;;;;;;;10.25;4.03;;;;;;;17.16;100.00;98144.66;6106220;19;20002;-74
2023/10/12 04:30:33;;;;;;;7.82;3.65;;;;;;;17.23;100.00;98148.09;6107428;19;20003;-73
2023/10/12 04:32:57;;;;;;;10.00;3.85;;;;;;;17.28;100.00;98149.59;6104100;19;20013;-73
2023/10/12 04:34:57;;;;;;;13.07;3.60;;;;;;;17.28;100.00;98175.53;6106998;19;20002;-73
2023/10/12 04:37:11;;;;;;;10.13;4.30;;;;;;;17.29;100.00;98168.72;6107241;19;20012;-73
2023/10/12 04:39:27;;;;;;;10.57;3.92;;;;;;;17.24;100.00;98177.63;6105897;19;20561;-74
2023/10/12 04:41:37;;;;;;;8.45;3.85;;;;;;;17.21;100.00;98186.88;6105547;19;20009;-74
2023/10/12 04:43:39;;;;;;;10.05;3.80;;;;;;;17.14;100.00;98178.66;6106898;19;20074;-73
2023/10/12 04:48:17;;;;;;;8.50;3.72;;;;;;;17.11;100.00;98191.44;6105640;19;20014;-73
2023/10/12 04:50:27;;;;;;;8.05;3.95;;;;;;;17.05;100.00;98198.78;6003104;19;2006241;-74
2023/10/12 04:52:33;;;;;;;12.10;4.13;;;;;;;16.99;100.00;98208.06;6103841;19;20094;-74
2023/10/12 04:57:13;;;;;;;12.32;4.35;;;;;;;16.91;100.00;98217.81;6106095;19;20031;-73
2023/10/12 04:59:17;;;;;;;8.27;3.95;;;;;;;16.89;100.00;98223.03;6105596;19;20074;-74
2023/10/12 05:01:23;;;;;;;12.25;4.63;;;;;;;16.82;100.00;98221.16;6106114;19;20014;-74
2023/10/12 05:03:33;;;;;;;8.60;4.47;;;;;;;16.74;100.00;98242.84;6103227;19;20036;-74
2023/10/12 05:06:23;;;;;;;11.05;4.43;;;;;;;16.74;100.00;98242.03;6105854;19;20007;-74
2023/10/12 05:07:57;;;;;;;12.85;4.80;;;;;;;16.64;100.00;98243.78;6104045;19;20010;-73
2023/10/12 05:09:58;;;;;;;9.98;4.13;;;;;;;16.53;100.00;98243.94;6105841;19;20463;-74
2023/10/12 05:11:58;;;;;;;8.98;3.90;;;;;;;16.41;100.00;98240.97;6104614;19;20018;-74
2023/10/12 05:14:01;;;;;;;8.75;4.43;;;;;;;16.37;100.00;98254.94;6103321;19;20458;-74
2023/10/12 05:16:06;;;;;;;9.25;4.03;;;;;;;16.34;100.00;98249.44;6110107;19;20002;-74
2023/10/12 05:18:10;;;;;;;10.88;4.30;;;;;;;16.26;100.00;98241.16;6111449;19;20009;-73
2023/10/12 05:20:11;;;;;;;8.00;4.10;;;;;;;16.25;100.00;98245.16;6110260;19;20002;-73
2023/10/12 05:22:12;;;;;;;9.18;4.45;;;;;;;16.18;100.00;98250.84;6108727;19;20011;-74
2023/10/12 05:24:13;;;;;;;9.00;3.70;;;;;;;16.20;100.00;98240.06;6109462;19;20010;-74
2023/10/12 05:26:14;;;;;;;5.88;4.03;;;;;;;16.20;100.00;98236.47;6111591;19;20002;-73
2023/10/12 05:28:16;;;;;;;8.85;4.25;;;;;;;16.18;100.00;98224.94;6110497;19;20474;-73
2023/10/12 05:30:20;;;;;;;;;;;;;;;16.18;100.00;98224.94;6111384;19;20017;-73
2023/10/12 05:32:36;;;;;;;9.93;4.82;;;;;;;16.15;100.00;98239.75;6108063;19;19925;-73
2023/10/12 05:36:42;;;;;;;8.80;4.28;;;;;;;16.11;100.00;98250.16;6110700;19;20007;-73
2023/10/12 05:38:51;;;;;;;9.45;5.00;;;;;;;16.11;100.00;98253.75;6110944;19;20009;-73
2023/10/12 05:40:55;;;;;;;12.27;5.05;;;;;;;16.08;100.00;98243.44;6107378;19;20087;-73
2023/10/12 05:42:55;;;;;;;10.80;4.47;;;;;;;16.04;100.00;98259.44;6110248;19;20005;-73
2023/10/12 05:45:17;;;;;;;7.60;3.83;;;;;;;16.02;100.00;98270.22;6112110;19;20235;-73
2023/10/12 05:47:43;;;;;;;7.55;3.85;;;;;;;16.02;100.00;98289.75;6109634;19;20542;-73
2023/10/12 05:49:40;;;;;;;9.30;4.85;;;;;;;15.97;100.00;98293.00;6098413;19;20484;-73
2023/10/12 05:51:44;;;;;;;10.50;4.30;;;;;;;15.99;100.00;98291.38;6106748;19;20022;-73
2023/10/12 05:53:48;;;;;;;10.38;4.60;;;;;;;15.98;100.00;98305.78;6109645;19;20007;-73
2023/10/12 05:55:49;;;;;;;8.50;4.68;;;;;;;15.98;100.00;98314.94;6110699;19;20006;-72
2023/10/12 05:57:50;;;;;;;10.07;4.22;;;;;;;15.96;100.00;98308.16;6108343;19;20010;-73
2023/10/12 05:59:50;;;;;;;10.60;4.32;;;;;;;15.96;100.00;98310.94;6110017;19;20023;-73
2023/10/12 06:01:50;;;;;;;9.10;4.30;;;;;;;15.94;100.00;98305.78;6108918;19;20332;-73
2023/10/12 06:03:56;;;;;;;9.07;4.28;;;;;;;15.95;100.00;98312.16;6109779;19;20009;-73
2023/10/12 06:05:56;;;;;;;9.27;4.55;;;;;;;15.90;100.00;98310.66;6109783;19;20125;-73
2023/10/12 06:08:00;;;;;;;12.02;5.13;;;;;;;15.85;100.00;98308.31;6107358;19;20030;-73
2023/10/12 06:10:09;;;;;;;6.80;4.00;;;;;;;15.85;100.00;98307.53;6107591;19;20010;-73
2023/10/12 06:12:12;;;;;;;9.63;4.70;;;;;;;15.82;100.00;98327.88;6104735;19;20003;-72
2023/10/12 06:14:14;;;;;;;10.30;5.10;;;;;;;15.79;100.00;98325.91;6106855;19;20350;-73
2023/10/12 06:16:15;;;;;;;9.85;4.00;;;;;;;15.76;100.00;98332.34;6107228;19;20044;-73
2023/10/12 06:18:21;;;;;;;8.63;4.15;;;;;;;15.75;100.00;98336.34;6106600;19;20454;-73
2023/10/12 06:20:40;;;;;;;8.02;4.70;;;;;;;15.75;100.00;98330.75;6106485;19;20401;-73
2023/10/12 06:22:41;;;;;;;7.10;4.07;;;;;;;15.73;100.00;98328.38;6107565;19;20007;-72
2023/10/12 06:24:44;;;;;;;10.80;5.22;;;;;;;15.74;100.00;98313.22;6109220;19;20014;-73
2023/10/12 06:26:47;;;;;;;12.50;6.05;;;;;;;15.77;100.00;98312.38;6108832;19;20006;-73
2023/10/12 06:28:48;;;;;;;;;;;;;;;15.80;100.00;98294.03;6111883;19;20011;-72
2023/10/12 06:30:50;;;;;;;9.77;4.65;;;;;;;15.81;100.00;98313.16;6110167;19;19910;-73
2023/10/12 06:32:50;;;;;;;9.98;4.93;;;;;;;15.82;100.00;98311.94;6109230;19;20019;-72
2023/10/12 06:37:11;;;;;;;11.68;4.15;;;;;;;15.79;100.00;98301.59;6110453;19;19994;-73
2023/10/12 06:41:58;;;;;;;10.38;4.97;;;;;;;15.83;100.00;98276.47;6109819;19;20337;-72
2023/10/12 06:43:57;;;;;;;6.50;4.63;;;;;;;15.78;100.00;98255.38;6107982;19;20368;-73
2023/10/12 06:45:58;;;;;;;7.53;4.38;;;;;;;15.80;100.00;98260.53;6109607;19;20003;-73
2023/10/12 06:48:21;;;;;;;10.23;4.80;;;;;;;15.78;100.00;98262.97;6110277;19;20002;-72
2023/10/12 06:50:20;;;;;;;6.80;4.10;;;;;;;15.77;100.00;98297.66;5998931;19;2005921;-73
2023/10/12 06:52:22;;;;;;;12.98;4.25;;;;;;;15.70;100.00;98307.69;6101641;19;20002;-73
2023/10/12 06:54:33;;;;;;;13.65;4.75;;;;;;;15.68;100.00;98307.31;6102423;19;20447;-73
2023/10/12 06:56:39;;;;;;;7.18;4.70;;;;;;;15.68;100.00;98335.19;6103039;19;20346;-73
2023/10/12 06:58:39;;;;;;;7.75;4.18;;;;;;;15.67;100.00;98339.19;6102517;19;20006;-72
2023/10/12 07:01:09;;;;;;;11.82;3.97;;;;;;;15.68;100.00;98356.72;6103607;19;20256;-73
2023/10/12 07:03:00;;;;;;;14.00;4.53;;;;;;;15.70;100.00;98377.41;6101063;19;20003;-72
2023/10/12 07:05:04;;;;;;;8.75;4.32;;;;;;;15.74;100.00;98391.34;6102137;19;20459;-73
2023/10/12 07:07:10;;;;;;;8.38;4.63;;;;;;;15.75;100.00;98403.28;6102878;19;21121;-72
2023/10/12 07:09:11;;;;;;;7.28;4.05;;;;;;;15.74;100.00;98402.50;6102532;19;20003;-73
2023/10/12 07:11:14;;;;;;;14.15;4.97;;;;;;;15.73;100.00;98403.69;6100796;19;20570;-72
2023/10/12 07:13:14;;;;;;;9.38;4.38;;;;;;;15.78;100.00;98405.22;6100931;19;20003;-73
2023/10/12 07:15:22;;;;;;;10.73;4.75;;;;;;;15.77;100.00;98406.44;6102169;19;20009;-72
2023/10/12 07:17:32;;;;;;;10.52;4.35;;;;;;;15.73;100.00;98403.69;6101659;19;20006;-72
2023/10/12 07:19:33;;;;;;;7.88;4.22;;;;;;;15.73;100.00;98398.91;6101491;19;20013;-72
2023/10/12 07:21:34;;;;;;;12.40;4.20;;;;;;;15.79;100.00;98410.38;6100701;19;20231;-72
2023/10/12 07:23:35;;;;;;;7.50;4.18;;;;;;;15.80;100.00;98400.03;6102018;19;20381;-72
2023/10/12 07:25:36;;;;;;;11.43;4.20;;;;;;;15.82;100.00;98400.41;6101823;19;20007;-72
2023/10/12 07:27:51;;;;;;;8.20;4.25;;;;;;;15.87;100.00;98386.00;6101673;19;20211;-72
2023/10/12 07:30:22;;;;;;;8.48;3.83;;;;;;;15.88;100.00;98398.75;6102240;19;20002;-72
2023/10/12 07:32:31;;;;;;;6.25;3.55;;;;;;;15.88;100.00;98401.53;5998346;19;2006440;-72
2023/10/12 07:34:32;;;;;;;8.02;3.90;;;;;;;15.87;100.00;98395.16;6101434;19;20314;-72
2023/10/12 07:38:43;;;;;;;9.77;4.13;;;;;;;15.84;100.00;98404.38;6103608;19;20030;-72
2023/10/12 07:41:16;;;;;;;8.73;4.28;;;;;;;15.91;100.00;98409.09;6101578;19;20392;-73
2023/10/12 07:43:17;;;;;;;8.05;3.88;;;;;;;15.89;100.00;98405.94;6099572;19;20395;-73
2023/10/12 07:45:19;;;;;;;7.85;3.47;;;;;;;15.87;100.00;98411.91;6102380;19;20003;-73
2023/10/12 07:47:31;;;;;;;6.22;3.30;;;;;;;15.84;100.00;98421.09;6101161;19;20082;-72
2023/10/12 07:51:53;;;;;;;7.57;3.60;;;;;;;15.85;100.00;98421.91;6106381;19;20014;-72
2023/10/12 07:53:57;;;;;;;9.50;4.18;;;;;;;15.83;100.00;98421.53;6109351;19;20459;-72
2023/10/12 07:56:00;;;;;;;5.72;3.72;;;;;;;15.84;100.00;98425.91;6108523;19;20010;-72
2023/10/12 07:58:02;;;;;;;11.25;3.97;;;;;;;15.82;100.00;98408.78;6108435;19;20013;-73
2023/10/12 08:02:15;;;;;;;5.18;3.30;;;;;;;15.88;100.00;98379.22;6105930;19;20007;-72
2023/10/12 08:04:31;;;;;;;6.53;3.47;;;;;;;15.91;100.00;98384.75;6107950;19;20007;-72
2023/10/12 08:08:35;;;;;;;6.13;3.20;;;;;;;15.97;100.00;98391.47;6108017;19;20324;-72
2023/10/12 08:12:45;;;;;;;6.32;2.90;;;;;;;16.02;100.00;98406.94;6107104;19;20014;-72
2023/10/12 08:14:45;;;;;;;4.82;2.92;;;;;;;16.05;100.00;98400.53;6108321;19;20093;-72
2023/10/12 08:17:24;;;;;;;8.73;3.33;;;;;;;16.08;100.00;98405.28;6108620;19;20483;-72
2023/10/12 08:23:26;;;;;;;9.20;3.33;;;;;;;16.20;100.00;98399.16;6108318;19;20393;-72
2023/10/12 08:25:38;;;;;;;7.22;3.50;;;;;;;16.24;100.00;98393.53;6107011;19;20473;-72
2023/10/12 08:30:21;;;;;;;6.80;3.22;;;;;;;16.31;100.00;98415.78;6104648;19;20003;-72
2023/10/12 08:36:54;;;;;;;9.13;3.15;;;;;;;16.36;100.00;98406.94;6107557;19;20006;-72
2023/10/12 08:38:54;;;;;;;9.13;3.08;;;;;;;16.37;100.00;98400.13;6108499;19;20358;-72
2023/10/12 08:41:21;;;;;;;7.30;3.42;;;;;;;16.36;100.00;98404.16;6107369;19;20010;-72
2023/10/12 08:43:34;;;;;;;;;;;;;;;16.38;100.00;98415.69;6106423;19;20011;-72
2023/10/12 08:45:37;;;;;;;7.40;3.00;;;;;;;16.40;100.00;98413.28;6106569;19;19919;-72
2023/10/12 08:49:52;;;;;;;7.18;3.78;;;;;;;16.39;100.00;98411.69;6109086;19;20019;-72
2023/10/12 08:54:16;;;;;;;8.38;3.38;;;;;;;16.36;100.00;98406.94;6008535;19;2005844;-73
2023/10/12 08:56:21;;;;;;;7.40;3.58;;;;;;;16.35;100.00;98410.16;6112429;19;20007;-72
2023/10/12 08:58:42;;;;;;;9.95;3.72;;;;;;;16.36;100.00;98414.53;6113023;19;20019;-72
2023/10/12 09:03:04;;;;;;;6.78;3.60;;;;;;;16.38;100.00;98403.72;6111522;19;20014;-72
2023/10/12 09:05:10;;;;;;;9.75;3.63;;;;;;;16.35;100.00;98405.34;6112856;19;20023;-73
2023/10/12 09:07:16;;;;;;;9.07;3.90;;;;;;;16.35;100.00;98410.16;6112942;19;20033;-72
2023/10/12 09:11:35;;;;;;;11.75;3.40;;;;;;;16.35;100.00;98421.31;6110830;19;20034;-73
2023/10/12 09:13:36;;;;;;;6.05;3.55;;;;;;;16.31;100.00;98406.63;6112332;19;20010;-72
2023/10/12 09:15:45;;;;;;;7.22;4.30;;;;;;;16.31;100.00;98410.22;6112346;19;20517;-73
2023/10/12 09:17:46;;;;;;;13.52;3.95;;;;;;;16.33;100.00;98420.97;6112004;19;20006;-72
2023/10/12 09:19:47;;;;;;;10.60;4.07;;;;;;;16.29;100.00;98421.78;6112260;19;20519;-73
2023/10/12 09:21:57;;;;;;;6.55;3.20;;;;;;;16.30;100.00;98425.34;6110435;19;20027;-72
2023/10/12 09:24:28;;;;;;;6.35;3.63;;;;;;;16.29;100.00;98418.97;6112296;19;20006;-72
2023/10/12 09:26:32;;;;;;;10.35;3.53;;;;;;;16.33;100.00;98423.75;6009772;19;2006383;-73
2023/10/12 09:28:43;;;;;;;8.00;4.00;;;;;;;16.33;100.00;98429.31;6111179;19;20011;-72
2023/10/12 09:30:45;;;;;;;6.75;4.05;;;;;;;16.37;100.00;98419.69;6112313;19;20017;-72
2023/10/12 09:32:57;;;;;;;7.90;3.65;;;;;;;16.40;100.00;98416.06;6110538;19;20013;-72
2023/10/12 09:35:11;;;;;;;9.57;4.18;;;;;;;16.42;100.00;98419.22;6113465;19;20361;-73
2023/10/12 09:37:18;;;;;;;7.53;3.88;;;;;;;16.46;100.00;98422.75;6111530;19;20329;-72
2023/10/12 09:39:24;;;;;;;7.93;3.70;;;;;;;16.43;100.00;98408.84;6111553;19;20470;-72
2023/10/12 09:41:29;;;;;;;7.15;3.80;;;;;;;16.48;100.00;98416.78;6111331;19;20003;-72
2023/10/12 09:43:36;;;;;;;7.72;3.13;;;;;;;16.48;100.00;98420.34;6111241;19;20011;-72
2023/10/12 09:45:45;;;;;;;8.05;3.45;;;;;;;16.47;100.00;98431.94;6112095;19;20014;-72
2023/10/12 09:47:53;;;;;;;5.90;3.22;;;;;;;16.47;100.00;98427.16;6110911;19;20003;-72
2023/10/12 09:49:58;;;;;;;6.32;3.33;;;;;;;16.48;100.00;98433.53;6111622;19;20054;-72
2023/10/12 09:52:07;;;;;;;9.18;3.63;;;;;;;16.49;100.00;98430.31;6109807;19;20422;-72
2023/10/12 09:54:15;;;;;;;8.02;3.85;;;;;;;16.49;100.00;98433.09;6108555;19;20475;-72
2023/10/12 09:56:18;;;;;;;8.73;3.83;;;;;;;16.51;100.00;98441.84;6110369;19;20021;-72
2023/10/12 09:58:27;;;;;;;;;;;;;;;16.51;100.00;98438.25;6111970;19;20007;-72
2023/10/12 10:00:55;;;;;;;6.35;3.10;;;;;;;16.48;100.00;98445.50;6108938;19;19915;-72
2023/10/12 10:02:55;;;;;;;;;;;;;;;16.52;100.00;98434.25;6111813;19;20010;-73
2023/10/12 10:05:51;;;;;;;5.45;3.03;;;;;;;16.51;100.00;98429.88;6112152;19;19922;-73
2023/10/12 10:07:27;;;;;;;12.68;4.10;;;;;;;16.48;100.00;98436.31;6109518;19;20040;-72
2023/10/12 10:11:32;;;;;;;5.95;3.03;;;;;;;16.49;100.00;98430.31;6110035;19;20340;-73
2023/10/12 10:13:47;;;;;;;10.55;3.28;;;;;;;16.53;100.00;98433.03;6109948;19;20046;-73
2023/10/12 10:15:56;;;;;;;8.52;3.25;;;;;;;16.54;100.00;98441.00;6110970;19;20007;-73
2023/10/12 10:17:57;;;;;;;6.50;2.90;;;;;;;16.55;100.00;98436.22;6111807;19;20007;-73
2023/10/12 10:22:24;;;;;;;8.90;3.40;;;;;;;16.54;100.00;98434.63;6007055;19;2005826;-73
2023/10/12 10:24:25;;;;;;;9.88;2.92;;;;;;;16.59;100.00;98436.97;6110628;19;20013;-73
2023/10/12 10:26:32;;;;;;;6.00;2.72;;;;;;;16.57;100.00;98434.59;6110521;19;20013;-73
2023/10/12 10:28:32;;;;;;;7.82;3.03;;;;;;;16.55;100.00;98439.03;6110096;19;20007;-73
2023/10/12 10:30:40;;;;;;;12.00;3.55;;;;;;;16.55;100.00;98439.81;6109927;19;20466;-73
2023/10/12 10:32:41;;;;;;;4.32;2.75;;;;;;;16.53;100.00;98436.63;6110472;19;20011;-73
2023/10/12 10:34:43;;;;;;;7.65;3.13;;;;;;;16.53;100.00;98439.41;6110108;19;20503;-74
2023/10/12 10:36:50;;;;;;;;;;;;;;;16.51;100.00;98444.63;6110646;19;20014;-73
2023/10/12 10:41:05;;;;;;;11.38;3.08;;;;;;;16.53;100.00;98450.59;6109659;19;20007;-73
2023/10/12 10:43:08;;;;;;;8.25;3.03;;;;;;;16.51;100.00;98444.63;6109172;19;20014;-73
2023/10/12 10:45:12;;;;;;;7.32;3.40;;;;;;;16.47;100.00;98441.13;6110469;19;20030;-73
2023/10/12 10:47:15;;;;;;;9.20;3.53;;;;;;;16.46;100.00;98442.31;6111437;19;20018;-74
2023/10/12 10:49:16;;;;;;;6.85;3.08;;;;;;;16.43;100.00;98443.16;6099974;19;20017;-73
2023/10/12 10:51:27;;;;;;;6.22;3.15;;;;;;;16.45;100.00;98457.47;6108991;19;20012;-73
2023/10/12 10:53:31;;;;;;;6.47;2.92;;;;;;;16.47;100.00;98451.50;6109792;19;20006;-73
2023/10/12 10:55:33;;;;;;;6.97;2.63;;;;;;;16.46;100.00;98452.69;6109218;19;20006;-73